Time;durP1;ratioP1;P1;durP2;ratioP2;P2;SDS_P1;SDS_P2;PMS_P1;PMS_P2;Temp;Humidity;BMP_temperature;BMP_pressure;BME280_temperature;BME280_humidity;BME280_pressure;Samples;Min_cycle;Max_cycle;Signal;HPM_P1;HPM_P2
2022/01/30 00:01:51;;;;;;;10.95;6.47;;;;;;;6.30;65.14;101949.88;4993904;28;20045;-82
2022/01/30 00:04:18;;;;;;;10.30;7.32;;;;;;;6.02;65.18;101914.31;4993859;28;20153;-81
2022/01/30 00:06:45;;;;;;;8.10;6.57;;;;;;;6.05;64.80;101929.97;4993931;28;20331;-81
2022/01/30 00:09:21;;;;;;;9.18;6.65;;;;;;;6.43;64.35;101982.59;5013964;28;20049;-81
2022/01/30 00:11:54;;;;;;;9.68;6.80;;;;;;;6.29;64.78;101958.72;5030278;28;20359;-83
2022/01/30 00:14:22;;;;;;;9.05;5.95;;;;;;;6.50;64.22;101960.25;5030120;28;20050;-80
2022/01/30 00:16:57;;;;;;;8.23;6.20;;;;;;;6.50;64.55;101944.44;5031543;28;20050;-81
2022/01/30 00:19:47;;;;;;;8.18;6.25;;;;;;;6.58;64.67;101950.19;5030951;28;20120;-82
2022/01/30 00:24:47;;;;;;;12.07;7.22;;;;;;;6.38;63.99;101903.72;5030821;28;20134;-82
2022/01/30 00:27:19;;;;;;;9.70;6.90;;;;;;;6.58;64.87;101944.91;5030838;28;20141;-81
2022/01/30 00:29:46;;;;;;;7.07;6.38;;;;;;;6.38;64.48;101931.84;5013284;28;20053;-82
2022/01/30 00:32:12;;;;;;;9.15;5.82;;;;;;;6.15;65.30;101899.59;5030143;28;20048;-81
2022/01/30 00:34:59;;;;;;;10.13;7.38;;;;;;;6.23;65.07;101901.00;5019453;28;20061;-82
2022/01/30 00:37:26;;;;;;;10.60;7.25;;;;;;;6.33;65.17;101915.41;5034100;28;20055;-81
2022/01/30 00:39:52;;;;;;;9.20;6.60;;;;;;;6.34;65.22;101925.06;5032330;28;20136;-82
2022/01/30 00:42:20;;;;;;;10.30;7.05;;;;;;;5.59;65.42;101800.41;5029868;28;20064;-82
2022/01/30 00:44:48;;;;;;;7.50;6.72;;;;;;;6.24;64.97;101894.78;5030930;28;20434;-82
2022/01/30 00:47:14;;;;;;;10.93;7.05;;;;;;;5.90;65.43;101846.34;5029568;28;20053;-82
2022/01/30 00:49:41;;;;;;;7.70;6.90;;;;;;;6.20;65.64;101902.00;5029663;28;20049;-81
2022/01/30 00:52:10;;;;;;;10.10;7.32;;;;;;;6.38;65.37;101926.59;5030602;28;20048;-81
2022/01/30 00:54:37;;;;;;;8.52;7.13;;;;;;;6.22;65.77;101902.78;5030589;28;20420;-82
2022/01/30 00:57:04;;;;;;;10.02;7.38;;;;;;;6.29;65.50;101917.38;5029230;28;20487;-81
2022/01/30 00:59:34;;;;;;;10.75;6.82;;;;;;;6.02;65.65;101856.31;5030073;28;20080;-81
2022/01/30 01:02:00;;;;;;;7.50;6.70;;;;;;;6.10;66.08;101882.28;5023687;28;20057;-81
2022/01/30 01:04:27;;;;;;;9.60;6.93;;;;;;;5.77;65.85;101820.56;5012995;28;20054;-81
2022/01/30 01:06:54;;;;;;;9.55;7.20;;;;;;;6.04;65.75;101864.97;4997333;28;20136;-81
2022/01/30 01:09:25;;;;;;;9.40;6.93;;;;;;;6.05;65.97;101861.44;5013640;28;20038;-81
2022/01/30 01:12:11;;;;;;;8.32;7.45;;;;;;;6.06;65.58;101854.38;5013167;28;20042;-81
2022/01/30 01:25:21;;;;;;;11.25;7.60;;;;;;;6.30;65.80;101860.19;5014079;28;20136;-80
2022/01/30 01:27:48;;;;;;;10.75;7.82;;;;;;;6.21;65.30;101837.75;4993312;28;20140;-81
2022/01/30 01:30:14;;;;;;;8.77;7.60;;;;;;;6.28;65.84;101856.78;4992806;28;20068;-81
2022/01/30 01:32:41;;;;;;;13.43;8.75;;;;;;;6.03;66.00;101836.91;4977162;28;20141;-80
2022/01/30 01:35:08;;;;;;;12.27;8.02;;;;;;;5.93;66.25;101823.31;4993463;28;20065;-81
2022/01/30 01:37:34;;;;;;;10.10;8.00;;;;;;;6.15;66.36;101856.56;4993420;28;20502;-81
2022/01/30 01:40:01;;;;;;;12.73;8.57;;;;;;;5.97;66.34;101811.72;4977030;28;20520;-81
2022/01/30 01:42:32;;;;;;;8.95;8.02;;;;;;;5.94;66.43;101805.75;4994032;28;20046;-80
2022/01/30 01:45:00;;;;;;;14.50;9.27;;;;;;;6.02;66.36;101835.22;4976122;28;20452;-81
2022/01/30 01:47:31;;;;;;;12.32;8.25;;;;;;;6.06;66.53;101842.03;4977165;28;20473;-81
2022/01/30 01:49:58;;;;;;;10.63;8.70;;;;;;;5.81;67.61;101810.75;4994234;28;20430;-82
2022/01/30 01:52:26;;;;;;;13.20;9.88;;;;;;;5.89;66.92;101776.94;4976917;28;20109;-82
2022/01/30 01:54:58;;;;;;;11.32;9.38;;;;;;;5.83;66.25;101772.00;4976885;28;20145;-80
2022/01/30 01:57:27;;;;;;;11.48;9.18;;;;;;;5.71;66.56;101746.28;4976298;28;20142;-82
2022/01/30 01:59:54;;;;;;;12.20;9.55;;;;;;;5.62;66.70;101731.75;4994048;28;20363;-81
2022/01/30 02:02:22;;;;;;;15.30;10.40;;;;;;;5.97;66.38;101795.03;4987713;28;20490;-81
2022/01/30 02:04:49;;;;;;;10.35;9.20;;;;;;;5.98;66.65;101807.31;4987499;28;20042;-83
2022/01/30 02:07:55;;;;;;;11.68;9.95;;;;;;;5.49;66.62;101709.63;4988956;28;20057;-82
2022/01/30 02:10:23;;;;;;;15.32;9.95;;;;;;;5.97;66.70;101776.59;5011696;28;20132;-82
2022/01/30 02:12:53;;;;;;;13.70;10.00;;;;;;;5.74;66.98;101751.38;5029289;28;20081;-81
2022/01/30 02:23:58;;;;;;;14.00;10.45;;;;;;;5.99;66.30;101764.19;5028946;28;20081;-81
2022/01/30 02:26:19;;;;;;;12.43;10.27;;;;;;;5.92;67.15;101739.03;5029311;28;20199;-82
2022/01/30 02:28:46;;;;;;;12.82;10.25;;;;;;;5.85;67.57;101741.16;5011414;28;20360;-81
2022/01/30 02:31:19;;;;;;;14.48;10.40;;;;;;;5.75;67.07;101724.97;5011659;28;20052;-81
2022/01/30 02:33:46;;;;;;;13.95;10.00;;;;;;;5.76;67.27;101728.44;5011147;28;20495;-81
2022/01/30 02:36:12;;;;;;;12.38;10.57;;;;;;;5.59;67.56;101710.00;5011228;28;20049;-82
2022/01/30 02:38:39;;;;;;;12.00;10.70;;;;;;;5.69;68.13;101721.78;5011249;28;20494;-81
2022/01/30 02:41:06;;;;;;;11.75;9.52;;;;;;;5.63;67.72;101709.78;5011019;28;20050;-82
2022/01/30 02:43:38;;;;;;;14.18;10.40;;;;;;;5.60;68.52;101709.91;5027603;28;20119;-81
2022/01/30 02:46:11;;;;;;;13.43;10.77;;;;;;;5.62;68.35;101700.16;5011115;28;20049;-82
2022/01/30 02:49:13;;;;;;;12.95;10.57;;;;;;;5.54;68.47;101686.53;5028336;28;20046;-83
2022/01/30 02:51:35;;;;;;;12.20;10.80;;;;;;;5.26;68.39;101651.03;5027175;28;20049;-82
2022/01/30 02:54:05;;;;;;;11.57;10.07;;;;;;;5.61;68.76;101714.28;5010734;28;20041;-81
2022/01/30 02:56:34;;;;;;;17.95;10.75;;;;;;;5.53;68.67;101700.59;5010653;28;20057;-83
2022/01/30 02:59:00;;;;;;;11.15;9.80;;;;;;;5.53;68.71;101701.50;5010786;28;20228;-81
2022/01/30 03:01:27;;;;;;;14.57;11.20;;;;;;;5.28;69.02;101654.44;5010658;28;20431;-81
2022/01/30 03:03:54;;;;;;;11.60;10.38;;;;;;;5.53;68.51;101690.06;5010554;28;20150;-81
2022/01/30 03:06:21;;;;;;;12.70;10.30;;;;;;;5.39;69.13;101676.75;5026989;28;20053;-82
2022/01/30 03:08:47;;;;;;;13.57;11.55;;;;;;;5.51;68.97;101692.81;5010560;28;20056;-81
2022/01/30 03:11:14;;;;;;;16.38;10.88;;;;;;;5.48;68.95;101697.34;4991538;28;20056;-82
2022/01/30 03:13:41;;;;;;;14.10;10.45;;;;;;;5.55;69.00;101696.13;5007183;28;20063;-81
2022/01/30 03:16:07;;;;;;;13.68;11.07;;;;;;;5.31;68.21;101648.16;4990818;28;20062;-81
2022/01/30 03:18:35;;;;;;;13.55;10.88;;;;;;;5.43;68.98;101678.31;4991000;28;20386;-80
2022/01/30 03:21:03;;;;;;;15.65;10.52;;;;;;;5.44;68.80;101685.28;5006909;28;20058;-81
2022/01/30 03:23:30;;;;;;;13.65;10.15;;;;;;;5.34;69.03;101672.59;5008292;28;20054;-82
2022/01/30 03:25:59;;;;;;;13.98;11.23;;;;;;;4.85;69.58;101585.50;5006248;28;20428;-83
2022/01/30 03:28:26;;;;;;;16.48;10.55;;;;;;;4.90;69.38;101601.94;5007729;28;20506;-82
2022/01/30 03:30:59;;;;;;;11.55;10.00;;;;;;;5.20;69.49;101663.66;4990616;28;20057;-82
2022/01/30 03:33:25;;;;;;;12.48;10.02;;;;;;;3.78;69.24;101435.56;4990250;28;20414;-81
2022/01/30 03:35:52;;;;;;;12.88;9.63;;;;;;;4.72;69.71;101581.78;4990488;28;20103;-83
2022/01/30 03:38:20;;;;;;;15.85;11.45;;;;;;;4.84;68.92;101580.34;5008194;28;20053;-82
2022/01/30 03:40:48;;;;;;;12.82;10.95;;;;;;;5.48;68.39;101678.91;5007541;28;20575;-83
2022/01/30 03:43:15;;;;;;;15.65;11.02;;;;;;;5.45;68.49;101687.00;4990648;28;20141;-82
2022/01/30 03:45:42;;;;;;;13.23;9.90;;;;;;;5.41;68.47;101665.19;5006645;28;20128;-82
2022/01/30 03:48:10;;;;;;;12.40;10.52;;;;;;;5.29;68.32;101645.63;5007881;28;20074;-83
2022/01/30 03:50:36;;;;;;;12.05;10.52;;;;;;;5.60;68.20;101683.56;4990950;28;20049;-82
2022/01/30 03:53:03;;;;;;;11.52;10.27;;;;;;;5.51;68.44;101671.75;4990434;28;20137;-83
2022/01/30 03:55:30;;;;;;;11.02;9.63;;;;;;;5.38;68.75;101659.25;4990428;28;20162;-84
2022/01/30 03:57:56;;;;;;;12.95;10.07;;;;;;;5.22;68.63;101638.97;4990328;28;20133;-82
2022/01/30 04:00:23;;;;;;;12.53;10.23;;;;;;;5.32;69.20;101666.53;5007528;28;20054;-82
2022/01/30 04:02:50;;;;;;;12.38;9.52;;;;;;;4.92;69.22;101605.31;5006354;28;20069;-85
2022/01/30 04:05:17;;;;;;;12.57;11.23;;;;;;;5.12;69.68;101632.44;5007652;28;20050;-82
2022/01/30 04:07:47;;;;;;;12.05;9.05;;;;;;;5.25;69.42;101659.88;4990145;28;20431;-82
2022/01/30 04:10:14;;;;;;;10.23;8.95;;;;;;;4.15;69.84;101482.00;5018284;28;20042;-82
2022/01/30 04:12:42;;;;;;;11.27;9.50;;;;;;;5.19;69.61;101669.84;5025538;28;20049;-81
2022/01/30 04:15:09;;;;;;;13.05;10.70;;;;;;;4.91;69.79;101637.84;5026938;28;20057;-81
2022/01/30 04:17:36;;;;;;;9.97;8.73;;;;;;;5.19;69.75;101670.69;5009503;28;20048;-81
2022/01/30 04:20:03;;;;;;;15.05;9.10;;;;;;;5.12;70.02;101659.63;5025705;28;20041;-82
2022/01/30 04:22:30;;;;;;;10.07;9.02;;;;;;;5.17;69.74;101677.84;5009208;28;20049;-82
2022/01/30 04:24:56;;;;;;;10.30;9.20;;;;;;;5.12;70.24;101666.66;5025613;28;20164;-82
2022/01/30 04:27:23;;;;;;;12.50;10.07;;;;;;;4.82;70.00;101609.34;5025780;28;20049;-82
2022/01/30 04:29:50;;;;;;;11.23;9.40;;;;;;;4.21;69.94;101507.97;5009608;28;20049;-83
2022/01/30 04:32:17;;;;;;;12.23;9.45;;;;;;;5.10;70.17;101658.00;5011249;28;20422;-82
2022/01/30 04:34:51;;;;;;;11.02;9.38;;;;;;;4.81;69.90;101594.50;5027747;28;20193;-81
2022/01/30 04:37:26;;;;;;;11.25;9.48;;;;;;;4.65;70.01;101572.47;5025294;28;20144;-83
2022/01/30 04:59:38;;;;;;;12.07;10.23;;;;;;;5.06;70.21;101630.13;5026285;28;20145;-82
2022/01/30 05:02:12;;;;;;;12.88;11.13;;;;;;;5.25;69.59;101638.81;5026212;28;20402;-82
2022/01/30 05:09:33;;;;;;;13.43;10.90;;;;;;;5.18;70.05;101616.34;5020767;28;20462;-80
2022/01/30 05:12:00;;;;;;;13.00;11.23;;;;;;;5.05;69.35;101584.53;5005624;28;20492;-80
2022/01/30 05:14:33;;;;;;;13.47;11.03;;;;;;;5.23;69.62;101635.38;4990216;28;20042;-79
2022/01/30 05:17:00;;;;;;;12.57;10.60;;;;;;;5.18;69.61;101634.78;4991828;28;20811;-83
2022/01/30 05:19:27;;;;;;;13.37;10.97;;;;;;;5.13;69.49;101635.00;5008279;28;20104;-82
2022/01/30 05:21:54;;;;;;;14.87;11.23;;;;;;;4.50;69.83;101530.22;4990128;28;20458;-82
2022/01/30 05:24:20;;;;;;;13.67;10.53;;;;;;;5.11;69.71;101614.94;4989109;28;20500;-81
2022/01/30 05:26:47;;;;;;;13.02;10.63;;;;;;;4.38;69.09;101477.38;4988699;28;20056;-82
2022/01/30 05:29:15;;;;;;;12.40;10.60;;;;;;;4.38;68.88;101480.84;4989000;28;20141;-82
2022/01/30 05:31:42;;;;;;;15.07;11.80;;;;;;;5.22;69.91;101638.97;4988829;28;20054;-83
2022/01/30 05:34:09;;;;;;;12.25;10.95;;;;;;;5.09;70.07;101628.16;5005011;28;20053;-82
2022/01/30 05:36:39;;;;;;;15.37;10.93;;;;;;;4.98;69.87;101619.97;4988767;28;20133;-83
2022/01/30 05:39:06;;;;;;;14.87;10.73;;;;;;;4.91;69.86;101624.69;4988612;28;20406;-81
2022/01/30 05:41:34;;;;;;;15.40;11.38;;;;;;;5.03;70.67;101643.44;4988710;28;20145;-81
2022/01/30 05:44:09;;;;;;;15.57;11.65;;;;;;;4.85;70.82;101626.75;5004860;28;20735;-82
2022/01/30 05:46:48;;;;;;;17.45;12.77;;;;;;;4.93;70.63;101638.63;4988605;28;20362;-82
2022/01/30 05:49:16;;;;;;;18.80;13.90;;;;;;;4.89;71.00;101630.94;4990081;28;20378;-82
2022/01/30 05:51:42;;;;;;;16.63;12.63;;;;;;;4.70;70.75;101604.66;5008611;28;20145;-82
2022/01/30 05:54:09;;;;;;;14.67;12.03;;;;;;;4.75;70.88;101621.06;5008330;28;20050;-82
2022/01/30 05:56:37;;;;;;;19.33;12.10;;;;;;;4.77;71.21;101621.88;5008528;28;20081;-83
2022/01/30 05:59:04;;;;;;;14.23;12.73;;;;;;;4.79;71.61;101621.78;5008635;28;20402;-80
2022/01/30 06:01:31;;;;;;;13.95;12.15;;;;;;;4.63;70.92;101603.25;5009703;28;20052;-84
2022/01/30 06:03:58;;;;;;;15.87;13.50;;;;;;;3.75;71.63;101456.75;4991855;28;20054;-82
2022/01/30 06:06:24;;;;;;;16.93;13.13;;;;;;;4.83;71.68;101626.84;5009278;28;20080;-82
2022/01/30 06:09:18;;;;;;;16.27;12.60;;;;;;;4.82;71.66;101616.38;5009722;28;20045;-81
2022/01/30 06:11:50;;;;;;;16.33;12.63;;;;;;;4.66;71.32;101603.09;4980281;28;20060;-82
2022/01/30 06:14:20;;;;;;;15.75;13.93;;;;;;;3.87;71.49;101458.78;4990364;28;20050;-82
2022/01/30 06:16:49;;;;;;;15.88;13.77;;;;;;;4.76;71.93;101604.38;4990206;28;20385;-81
2022/01/30 06:19:19;;;;;;;14.90;13.10;;;;;;;4.75;71.45;101596.56;4990132;28;20092;-81
2022/01/30 06:21:46;;;;;;;16.50;12.80;;;;;;;4.77;71.97;101606.06;5006074;28;20038;-82
2022/01/30 06:24:12;;;;;;;16.57;13.90;;;;;;;4.13;71.83;101493.50;5005879;28;20049;-81
2022/01/30 06:26:39;;;;;;;18.00;14.07;;;;;;;4.72;71.91;101581.78;4999946;28;20531;-81
2022/01/30 06:29:06;;;;;;;19.80;15.10;;;;;;;4.61;71.66;101542.88;5004992;28;20195;-82
2022/01/30 06:31:32;;;;;;;16.23;14.13;;;;;;;4.76;71.01;101569.31;4988354;28;20431;-81
2022/01/30 06:33:59;;;;;;;17.37;15.07;;;;;;;4.95;71.31;101596.41;5007111;28;20143;-81
2022/01/30 06:36:25;;;;;;;22.60;14.53;;;;;;;4.92;71.33;101604.47;4989338;28;20054;-81
2022/01/30 06:38:53;;;;;;;19.33;13.50;;;;;;;3.62;71.32;101377.69;5005571;28;20133;-81
2022/01/30 06:41:20;;;;;;;16.97;14.37;;;;;;;4.56;71.46;101530.84;5005723;28;20301;-82
2022/01/30 06:43:46;;;;;;;16.52;14.05;;;;;;;4.88;71.22;101577.47;4988449;28;20407;-80
2022/01/30 06:46:15;;;;;;;19.30;14.85;;;;;;;4.92;70.80;101573.75;5005169;28;20454;-81
2022/01/30 06:48:42;;;;;;;19.48;14.18;;;;;;;4.83;70.65;101544.41;4988119;28;20434;-82
2022/01/30 06:51:08;;;;;;;20.77;15.77;;;;;;;5.16;70.80;101591.03;5005358;28;20508;-83
2022/01/30 06:53:35;;;;;;;17.63;13.95;;;;;;;4.82;70.77;101554.09;4988128;28;20080;-82
2022/01/30 06:56:02;;;;;;;18.20;14.07;;;;;;;4.60;71.17;101537.66;4989035;28;20081;-80
2022/01/30 06:58:28;;;;;;;17.77;14.47;;;;;;;5.02;70.88;101596.97;4987749;28;20050;-81
2022/01/30 07:00:55;;;;;;;17.30;14.23;;;;;;;5.10;71.09;101592.19;4987385;28;20125;-81
2022/01/30 07:03:22;;;;;;;18.43;15.33;;;;;;;5.13;70.93;101590.25;4987974;28;20104;-82
2022/01/30 07:05:48;;;;;;;17.33;14.90;;;;;;;4.82;71.02;101556.72;4988000;28;20473;-82
2022/01/30 07:08:15;;;;;;;19.27;14.87;;;;;;;4.98;71.29;101593.66;4988150;28;20050;-82
2022/01/30 07:10:42;;;;;;;17.75;14.70;;;;;;;5.03;71.31;101596.06;5004911;28;20133;-82
2022/01/30 07:13:10;;;;;;;18.97;15.37;;;;;;;4.87;71.72;101570.50;4987495;28;20066;-82
2022/01/30 07:15:36;;;;;;;19.13;15.20;;;;;;;4.96;71.39;101579.72;5003470;28;20411;-81
2022/01/30 07:18:03;;;;;;;20.00;15.30;;;;;;;5.00;72.22;101585.66;4988210;28;20053;-82
2022/01/30 07:20:30;;;;;;;20.13;15.95;;;;;;;5.09;71.66;101601.84;4987313;28;20060;-82
2022/01/30 07:22:57;;;;;;;19.42;16.02;;;;;;;4.91;71.38;101551.00;5004981;28;20594;-81
2022/01/30 07:25:23;;;;;;;18.57;16.60;;;;;;;5.15;71.40;101584.91;5008148;28;20046;-84
2022/01/30 07:27:50;;;;;;;24.95;17.45;;;;;;;5.08;71.92;101579.09;5006275;28;20081;-82
2022/01/30 07:30:16;;;;;;;21.83;16.30;;;;;;;5.18;71.07;101568.97;5006528;28;20050;-80
2022/01/30 07:32:43;;;;;;;19.25;16.15;;;;;;;5.17;71.54;101583.06;5007838;28;20064;-81
2022/01/30 07:35:10;;;;;;;20.65;16.65;;;;;;;5.17;71.73;101585.69;5007286;28;20133;-81
2022/01/30 07:37:37;;;;;;;25.42;20.55;;;;;;;5.17;71.52;101561.13;5007709;28;20072;-81
2022/01/30 07:40:04;;;;;;;24.23;19.40;;;;;;;4.79;71.59;101499.00;5005748;28;20056;-82
2022/01/30 07:42:33;;;;;;;23.45;19.20;;;;;;;5.28;71.91;101585.97;5005389;28;20152;-82
2022/01/30 07:45:00;;;;;;;24.88;21.02;;;;;;;5.21;71.86;101571.44;5005662;28;20060;-82
2022/01/30 07:47:26;;;;;;;26.58;20.00;;;;;;;5.14;71.71;101548.97;4989107;28;20499;-80
2022/01/30 07:49:53;;;;;;;22.00;19.60;;;;;;;5.46;72.15;101588.59;5005709;28;20081;-80
2022/01/30 07:52:21;;;;;;;25.90;20.45;;;;;;;5.37;71.89;101589.09;5005698;28;20490;-81
2022/01/30 07:54:49;;;;;;;24.73;20.17;;;;;;;5.53;72.00;101589.97;4990268;28;20045;-83
2022/01/30 07:57:18;;;;;;;22.92;19.77;;;;;;;5.51;71.92;101581.31;5006733;28;20498;-82
2022/01/30 07:59:46;;;;;;;25.00;22.10;;;;;;;5.31;71.85;101533.16;4990025;28;20045;-82
2022/01/30 08:02:12;;;;;;;24.55;20.98;;;;;;;5.54;71.66;101549.56;5006373;28;20149;-82
2022/01/30 08:04:40;;;;;;;23.08;20.58;;;;;;;5.74;71.59;101588.84;5007264;28;20084;-82
2022/01/30 08:07:07;;;;;;;24.17;19.98;;;;;;;5.60;71.76;101554.50;4989662;28;20577;-82
2022/01/30 08:09:36;;;;;;;27.38;22.25;;;;;;;5.92;72.00;101586.19;5007728;28;20420;-83
2022/01/30 08:12:03;;;;;;;27.38;22.58;;;;;;;5.82;71.84;101569.16;5006146;28;20058;-84
2022/01/30 08:14:30;;;;;;;30.52;22.40;;;;;;;5.82;71.90;101569.16;4989496;28;20046;-82
2022/01/30 08:16:56;;;;;;;29.77;23.48;;;;;;;6.02;72.17;101595.34;4989421;28;20045;-82
2022/01/30 08:19:25;;;;;;;30.80;24.38;;;;;;;5.93;71.99;101577.34;4989827;28;20046;-84
2022/01/30 08:21:53;;;;;;;29.75;22.70;;;;;;;6.15;71.84;101595.53;4988558;28;20184;-83
2022/01/30 08:24:22;;;;;;;26.45;23.60;;;;;;;6.32;71.82;101597.25;4987575;28;20064;-83
2022/01/30 08:26:48;;;;;;;28.90;23.92;;;;;;;6.30;71.46;101578.00;4989102;28;20500;-82
2022/01/30 08:29:15;;;;;;;33.72;26.23;;;;;;;6.52;71.39;101594.31;4989070;28;20068;-82
2022/01/30 08:31:42;;;;;;;31.02;25.65;;;;;;;6.60;70.73;101584.22;5006837;28;20356;-82
2022/01/30 08:34:09;;;;;;;31.00;24.83;;;;;;;6.73;70.41;101567.69;4989678;28;20046;-81
2022/01/30 08:36:35;;;;;;;30.85;25.38;;;;;;;6.19;69.42;101455.53;5008375;28;20118;-82
2022/01/30 08:39:02;;;;;;;33.95;27.13;;;;;;;7.23;69.07;101591.13;4994699;28;20041;-81
2022/01/30 08:41:30;;;;;;;38.90;26.23;;;;;;;7.37;68.33;101585.00;5014161;28;20084;-85
2022/01/30 08:43:57;;;;;;;35.75;27.52;;;;;;;7.57;67.87;101601.47;4998230;28;20050;-85
2022/01/30 08:46:23;;;;;;;35.50;27.25;;;;;;;7.44;67.48;101565.22;4997352;28;20362;-82
2022/01/30 08:48:50;;;;;;;33.53;26.33;;;;;;;7.68;67.13;101573.44;4989668;28;20054;-84
2022/01/30 08:51:17;;;;;;;33.15;25.70;;;;;;;7.92;66.79;101599.31;4989684;28;20131;-83
2022/01/30 08:53:43;;;;;;;33.15;26.67;;;;;;;7.76;66.44;101580.91;4989454;28;20122;-84
2022/01/30 08:56:10;;;;;;;33.33;25.83;;;;;;;8.14;66.03;101627.94;4989044;28;20124;-82
2022/01/30 08:58:36;;;;;;;32.60;26.35;;;;;;;8.27;66.15;101617.41;4991527;28;20402;-82
2022/01/30 09:01:03;;;;;;;32.58;25.40;;;;;;;8.37;64.58;101623.81;4990345;28;20317;-82
2022/01/30 09:03:30;;;;;;;29.73;24.70;;;;;;;8.29;65.03;101579.34;4989611;28;20060;-82
2022/01/30 09:05:57;;;;;;;30.70;24.75;;;;;;;8.49;64.79;101607.19;4989796;28;20290;-80
2022/01/30 09:08:28;;;;;;;32.08;25.10;;;;;;;8.57;64.35;101604.06;4990960;28;20131;-82
2022/01/30 09:10:57;;;;;;;29.10;23.05;;;;;;;8.60;63.75;101585.34;5005979;28;20075;-83
2022/01/30 09:13:24;;;;;;;31.70;24.75;;;;;;;8.51;63.67;101564.75;5026778;28;20258;-82
2022/01/30 09:15:56;;;;;;;33.47;25.08;;;;;;;8.74;63.03;101595.88;5009059;28;20494;-82
2022/01/30 09:18:25;;;;;;;;;;;;;;;8.84;62.79;101608.53;5025883;28;20061;-82
2022/01/30 09:20:52;;;;;;;29.48;24.30;;;;;;;8.87;63.61;101600.38;5008625;28;20153;-83
2022/01/30 09:23:20;;;;;;;29.95;23.50;;;;;;;8.97;62.66;101606.75;5008797;28;20443;-83
2022/01/30 09:25:47;;;;;;;32.92;23.95;;;;;;;8.69;62.88;101566.22;5012453;28;20057;-83
2022/01/30 09:28:15;;;;;;;32.30;24.75;;;;;;;8.66;63.17;101563.75;5017207;28;20108;-83
2022/01/30 09:30:41;;;;;;;31.20;23.75;;;;;;;8.60;62.62;101531.56;4991422;28;20053;-83
2022/01/30 09:33:08;;;;;;;26.98;23.60;;;;;;;9.15;62.28;101594.06;5007727;28;20053;-82
2022/01/30 09:35:35;;;;;;;30.45;23.20;;;;;;;9.10;62.39;101589.13;4990417;28;20145;-82
2022/01/30 09:38:04;;;;;;;28.52;23.77;;;;;;;9.01;62.57;101565.88;5008576;28;20137;-81
2022/01/30 09:40:31;;;;;;;31.67;23.48;;;;;;;9.34;61.86;101605.13;5008844;28;20057;-82
2022/01/30 09:42:58;;;;;;;28.20;24.40;;;;;;;9.10;62.13;101549.38;4990926;28;20081;-83
2022/01/30 09:45:26;;;;;;;36.05;24.75;;;;;;;8.88;62.22;101507.56;5007297;28;20133;-84
2022/01/30 09:47:53;;;;;;;28.40;22.90;;;;;;;9.60;61.76;101600.72;4990860;28;20058;-82
2022/01/30 09:50:21;;;;;;;28.27;22.98;;;;;;;9.83;61.54;101612.38;5007431;28;20052;-82
2022/01/30 09:52:48;;;;;;;31.50;25.17;;;;;;;9.95;60.75;101604.50;5007234;28;20144;-83
2022/01/30 09:55:15;;;;;;;29.63;23.80;;;;;;;9.84;60.43;101581.41;4990547;28;20557;-81
2022/01/30 09:57:43;;;;;;;29.23;23.42;;;;;;;10.27;60.13;101612.84;4991104;28;20137;-82
2022/01/30 10:00:11;;;;;;;26.85;21.88;;;;;;;10.09;60.52;101566.41;5007040;28;20066;-83
2022/01/30 10:02:42;;;;;;;32.25;22.98;;;;;;;10.49;60.48;101598.91;4991168;28;20046;-82
2022/01/30 10:05:14;;;;;;;32.75;22.88;;;;;;;10.67;59.72;101613.47;5006335;28;20073;-82
2022/01/30 10:07:49;;;;;;;29.83;22.45;;;;;;;10.81;58.91;101604.50;5005916;28;20444;-83
2022/01/30 10:10:18;;;;;;;31.30;21.55;;;;;;;10.71;58.58;101571.63;4992636;28;20419;-80
2022/01/30 10:13:11;;;;;;;30.50;22.20;;;;;;;11.09;57.55;101605.97;5003599;28;20136;-82
2022/01/30 10:15:50;;;;;;;31.40;23.02;;;;;;;11.00;58.21;101587.22;4986817;28;20086;-82
2022/01/30 10:18:19;;;;;;;25.02;22.05;;;;;;;11.19;57.36;101598.16;4987372;28;20058;-82
2022/01/30 10:20:46;;;;;;;25.58;21.52;;;;;;;11.30;57.46;101600.81;4986793;28;20045;-83
2022/01/30 10:23:13;;;;;;;26.63;20.95;;;;;;;11.38;57.54;101597.56;4986977;28;20058;-83
2022/01/30 10:25:50;;;;;;;29.13;20.90;;;;;;;11.34;56.80;101575.72;4987044;28;20054;-83
2022/01/30 10:28:16;;;;;;;25.42;20.95;;;;;;;11.49;57.13;101594.09;4988420;28;20072;-83
2022/01/30 10:30:53;;;;;;;26.02;21.48;;;;;;;11.61;55.77;101581.69;4970973;28;20054;-83
2022/01/30 10:33:38;;;;;;;29.05;21.75;;;;;;;11.60;55.66;101583.47;4970393;28;20050;-82
2022/01/30 10:36:08;;;;;;;28.75;22.45;;;;;;;11.58;56.61;101585.44;4971254;28;20054;-82
2022/01/30 10:38:52;;;;;;;27.10;21.15;;;;;;;11.51;56.88;101582.38;4990192;28;20117;-81
2022/01/30 10:41:30;;;;;;;26.27;20.27;;;;;;;11.34;56.64;101553.59;4990217;28;20335;-82
2022/01/30 10:43:59;;;;;;;23.63;20.77;;;;;;;11.72;55.55;101592.31;4989313;28;20538;-82
2022/01/30 10:46:28;;;;;;;24.63;19.45;;;;;;;11.74;55.62;101583.25;4970338;28;20527;-82
2022/01/30 10:49:00;;;;;;;24.80;19.70;;;;;;;11.48;55.55;101531.25;4970130;28;20054;-84
2022/01/30 10:51:29;;;;;;;22.85;18.88;;;;;;;11.83;55.30;101575.53;4986534;28;20567;-83
2022/01/30 10:53:57;;;;;;;25.55;19.95;;;;;;;12.02;55.28;101570.47;4971985;28;20426;-82
2022/01/30 10:56:27;;;;;;;21.17;18.80;;;;;;;12.08;54.86;101561.97;4989290;28;20319;-82
2022/01/30 10:59:12;;;;;;;26.40;20.13;;;;;;;12.32;53.22;101560.97;4987851;28;20475;-83
2022/01/30 11:01:42;;;;;;;21.98;19.70;;;;;;;12.47;53.71;101570.38;4987391;28;20116;-83
2022/01/30 11:04:27;;;;;;;25.70;20.70;;;;;;;12.46;52.64;101534.06;4984730;28;20073;-83
2022/01/30 11:06:57;;;;;;;25.92;20.33;;;;;;;12.72;53.01;101563.91;4987837;28;20051;-83
2022/01/30 11:09:30;;;;;;;27.95;21.48;;;;;;;12.76;52.43;101544.00;4998077;28;20041;-84
2022/01/30 11:12:07;;;;;;;29.48;21.42;;;;;;;12.67;52.58;101518.16;5028308;28;20160;-84
2022/01/30 11:14:37;;;;;;;27.42;21.15;;;;;;;12.87;52.50;101518.31;5028639;28;20136;-84
2022/01/30 11:17:14;;;;;;;23.90;20.10;;;;;;;12.76;51.27;101469.41;4988603;28;20138;-83
2022/01/30 11:19:42;;;;;;;24.85;21.05;;;;;;;13.27;51.47;101547.78;4987837;28;20050;-84
2022/01/30 11:22:11;;;;;;;24.75;21.08;;;;;;;13.34;50.99;101524.94;4969949;28;20085;-83
2022/01/30 11:24:46;;;;;;;28.65;22.85;;;;;;;13.38;50.54;101521.03;4985573;28;20081;-85
2022/01/30 11:27:18;;;;;;;23.50;19.98;;;;;;;13.41;50.44;101523.44;5006026;28;20046;-84
2022/01/30 11:29:46;;;;;;;28.60;20.77;;;;;;;13.21;50.75;101518.94;5005344;28;20042;-81
2022/01/30 11:32:13;;;;;;;25.30;20.05;;;;;;;13.08;51.66;101515.63;5007241;28;20050;-80
2022/01/30 11:34:42;;;;;;;24.88;21.00;;;;;;;13.01;52.19;101516.16;4989113;28;20066;-82
2022/01/30 11:37:11;;;;;;;24.80;21.17;;;;;;;12.92;51.64;101514.25;5006825;28;20085;-85
2022/01/30 11:39:44;;;;;;;29.15;21.38;;;;;;;12.77;52.03;101507.56;5005039;28;20045;-83
2022/01/30 11:42:17;;;;;;;26.88;20.27;;;;;;;12.71;52.36;101505.41;5004683;28;20389;-84
2022/01/30 11:44:46;;;;;;;23.60;20.35;;;;;;;12.25;52.43;101458.63;5006199;28;20466;-84
2022/01/30 11:47:13;;;;;;;26.48;20.48;;;;;;;12.42;53.09;101516.66;4985920;28;20054;-84
2022/01/30 11:49:47;;;;;;;24.55;20.65;;;;;;;12.27;52.84;101489.47;4985579;28;20054;-82
2022/01/30 11:52:16;;;;;;;28.55;22.48;;;;;;;11.95;53.47;101453.03;4985364;28;20054;-82
2022/01/30 11:54:45;;;;;;;26.02;20.73;;;;;;;12.16;53.94;101489.50;4984852;28;20479;-83
2022/01/30 11:57:18;;;;;;;25.65;21.17;;;;;;;11.85;53.25;101411.31;4984898;28;20463;-82
2022/01/30 11:59:45;;;;;;;23.80;20.33;;;;;;;12.22;53.56;101490.81;4985070;28;20072;-83
2022/01/30 12:02:22;;;;;;;25.15;20.95;;;;;;;12.19;53.76;101482.13;4987802;28;20049;-83
2022/01/30 12:04:54;;;;;;;25.20;21.30;;;;;;;12.11;53.96;101471.25;4987999;28;20120;-83
2022/01/30 12:07:30;;;;;;;;;;;;;;;12.06;54.10;101475.25;4989136;28;20065;-85
2022/01/30 12:10:15;;;;;;;32.08;21.52;;;;;;;11.80;54.57;101461.38;4985241;28;19925;-83
2022/01/30 12:12:48;;;;;;;25.33;20.70;;;;;;;11.86;54.79;101474.16;4984855;28;20138;-83
2022/01/30 12:15:37;;;;;;;27.77;22.10;;;;;;;11.80;54.84;101464.88;4989541;28;20057;-84